Mobo, Philippines
Current Conditions -  °F | °C
As of 4:00 AM on Thursday 27 Nov 2014 (Local Time) from RPVM Reporting Station
Overcast Overcast  
Wind Chill: 79°   Ceiling: 8000
Heat Index: 83°   Visibility: 3mi
Dew Point: 77°   Wind: 14mph
Humidity: 94%   Direction: 50°NE
Pressure: 29.71"   Gusts: NA
Location:  12.34°N, 123.66°E
Report Text: RPVM 262000Z 05012KT 5000 62RA SCT020 OVC080 26/25 Q1006 RMK A2971
Loading
Personal Weather Stations






























Interactive Weather Map New forecast layout! Learn more

10-Day Weather Forecast

Advertisements
Track Severe Weather on mobile